createdAt,value
2022-12-12T00:02:18.559Z,18.00
2022-12-12T00:04:45.768Z,19.35
2022-12-12T00:07:12.617Z,19.08
2022-12-12T00:09:39.528Z,18.88
2022-12-12T00:12:06.624Z,21.27
2022-12-12T00:14:33.464Z,19.17
2022-12-12T00:17:00.516Z,19.08
2022-12-12T00:19:27.445Z,17.80
2022-12-12T00:21:54.315Z,19.85
2022-12-12T00:24:21.467Z,19.38
2022-12-12T00:26:48.324Z,18.42
2022-12-12T00:29:15.160Z,18.77
2022-12-12T00:31:42.083Z,18.67
2022-12-12T00:34:09.645Z,19.35
2022-12-12T00:36:36.520Z,17.70
2022-12-12T00:39:03.903Z,18.15
2022-12-12T00:41:30.789Z,18.75
2022-12-12T00:43:57.576Z,19.23
2022-12-12T00:46:25.993Z,20.17
2022-12-12T00:48:58.731Z,19.60
2022-12-12T00:51:27.599Z,18.63
2022-12-12T00:53:55.984Z,19.15
2022-12-12T00:56:24.253Z,19.17
2022-12-12T00:58:52.301Z,19.10
2022-12-12T01:01:23.789Z,20.83
2022-12-12T01:03:51.449Z,19.17
2022-12-12T01:06:18.414Z,19.35
2022-12-12T01:08:45.323Z,19.95
2022-12-12T01:11:13.623Z,20.45
2022-12-12T01:13:42.654Z,20.63
2022-12-12T01:16:10.650Z,19.42
2022-12-12T01:18:38.402Z,19.45
2022-12-12T01:21:12.981Z,21.08
2022-12-12T01:23:40.273Z,20.75
2022-12-12T01:26:13.851Z,19.00
2022-12-12T01:28:40.950Z,20.58
2022-12-12T01:31:09.163Z,20.27
2022-12-12T01:33:36.328Z,21.00
2022-12-12T01:36:03.381Z,21.17
2022-12-12T01:38:30.286Z,21.95
2022-12-12T01:40:57.115Z,22.55
2022-12-12T01:43:25.450Z,22.13
2022-12-12T01:45:58.500Z,22.45
2022-12-12T01:48:30.523Z,22.67
2022-12-12T01:51:00.043Z,21.77
2022-12-12T01:53:29.608Z,20.75
2022-12-12T01:55:57.666Z,22.10
2022-12-12T01:58:25.307Z,21.65
2022-12-12T02:00:52.475Z,22.10
2022-12-12T02:03:19.528Z,22.30
2022-12-12T02:05:53.390Z,21.75
2022-12-12T02:08:23.149Z,22.23
2022-12-12T02:10:50.390Z,21.60
2022-12-12T02:13:21.963Z,22.25
2022-12-12T02:16:12.352Z,22.80
2022-12-12T02:19:16.826Z,21.38
2022-12-12T02:22:08.672Z,20.38
2022-12-12T02:24:38.602Z,20.63
2022-12-12T02:27:23.687Z,21.88
2022-12-12T02:30:09.300Z,21.48
2022-12-12T02:35:08.380Z,21.10
2022-12-12T02:37:49.169Z,20.80
2022-12-12T02:40:26.722Z,20.38
2022-12-12T02:43:21.035Z,21.17
2022-12-12T02:46:04.550Z,20.27
2022-12-12T02:48:48.487Z,20.90
2022-12-12T02:51:19.471Z,20.58
2022-12-12T02:53:46.789Z,19.17
2022-12-12T02:56:43.182Z,20.88
2022-12-12T02:59:14.379Z,20.35
2022-12-12T03:02:06.032Z,20.83
2022-12-12T03:05:18.920Z,19.48
2022-12-12T03:08:00.804Z,20.98
2022-12-12T03:11:02.208Z,19.73
2022-12-12T03:13:52.535Z,19.20
2022-12-12T03:16:30.257Z,21.65
2022-12-12T03:19:05.834Z,21.30
2022-12-12T03:21:39.691Z,20.38
2022-12-12T03:24:14.630Z,19.50
2022-12-12T03:27:00.225Z,19.45
2022-12-12T03:32:07.566Z,19.75
2022-12-12T03:34:47.535Z,21.55
2022-12-12T03:37:24.977Z,20.13
2022-12-12T03:40:03.628Z,20.63
2022-12-12T03:43:04.807Z,20.08
2022-12-12T03:45:55.775Z,21.60
2022-12-12T03:48:36.580Z,20.55
2022-12-12T03:51:28.188Z,23.50
2022-12-12T03:54:28.010Z,21.90
2022-12-12T03:57:06.028Z,21.95
2022-12-12T03:59:49.233Z,23.90
2022-12-12T04:02:29.474Z,21.02
2022-12-12T04:05:28.679Z,23.00
2022-12-12T04:08:00.559Z,23.48
2022-12-12T04:10:50.106Z,22.70
2022-12-12T04:13:35.067Z,21.73
2022-12-12T04:16:01.936Z,22.90
2022-12-12T04:19:00.974Z,22.48
2022-12-12T04:22:01.054Z,25.15
2022-12-12T04:24:51.040Z,22.73
2022-12-12T04:27:42.616Z,24.17
2022-12-12T04:30:12.542Z,24.83
2022-12-12T04:33:01.394Z,24.20
2022-12-12T04:35:41.075Z,23.95
2022-12-12T04:38:17.521Z,24.95
2022-12-12T04:40:49.100Z,23.77
2022-12-12T04:43:35.900Z,24.38
2022-12-12T04:46:07.308Z,24.38
2022-12-12T04:48:43.743Z,24.20
2022-12-12T04:51:16.872Z,26.67
2022-12-12T04:54:00.156Z,26.40
2022-12-12T04:56:30.854Z,26.35
2022-12-12T04:58:58.530Z,24.33
2022-12-12T05:01:53.792Z,26.33
2022-12-12T05:04:29.304Z,23.83
2022-12-12T05:07:07.370Z,23.95
2022-12-12T05:09:35.627Z,24.52
2022-12-12T05:12:02.506Z,25.00
2022-12-12T05:14:31.438Z,24.75
2022-12-12T05:17:09.497Z,25.73
2022-12-12T05:19:36.477Z,25.48
2022-12-12T05:22:03.322Z,25.67
2022-12-12T05:24:31.326Z,24.98
2022-12-12T05:27:00.329Z,25.38
2022-12-12T05:29:27.244Z,27.05
2022-12-12T05:31:54.106Z,24.55
2022-12-12T05:34:21.003Z,23.83
2022-12-12T05:36:47.957Z,25.88
2022-12-12T05:39:14.969Z,24.55
2022-12-12T05:41:41.863Z,25.95
2022-12-12T05:44:08.803Z,25.60
2022-12-12T05:46:35.733Z,27.20
2022-12-12T05:49:02.628Z,25.90
2022-12-12T05:51:29.510Z,26.08
2022-12-12T05:53:56.330Z,24.60
2022-12-12T05:56:23.223Z,27.10
2022-12-12T05:58:50.158Z,27.00
2022-12-12T06:01:17.019Z,26.40
2022-12-12T06:03:43.993Z,27.65
2022-12-12T06:06:10.852Z,27.13
2022-12-12T06:08:37.795Z,27.90
2022-12-12T06:11:06.917Z,27.38
2022-12-12T06:13:33.906Z,27.77
2022-12-12T06:16:09.567Z,26.55
2022-12-12T06:18:36.982Z,28.65
2022-12-12T06:21:06.208Z,26.95
2022-12-12T06:23:37.539Z,25.98
2022-12-12T06:26:05.555Z,25.92
2022-12-12T06:28:32.891Z,28.42
2022-12-12T06:31:00.242Z,28.27
2022-12-12T06:33:27.669Z,25.88
2022-12-12T06:36:05.996Z,28.90
2022-12-12T06:38:33.382Z,28.05
2022-12-12T06:41:04.511Z,26.55
2022-12-12T06:43:31.392Z,28.33
2022-12-12T06:46:06.497Z,27.08
2022-12-12T06:51:09.142Z,26.75
2022-12-12T06:53:36.615Z,26.48
2022-12-12T06:56:24.830Z,27.02
2022-12-12T06:58:53.078Z,29.10
2022-12-12T07:01:21.919Z,28.08
2022-12-12T07:03:50.554Z,27.38
2022-12-12T07:06:19.691Z,28.38
2022-12-12T07:08:47.103Z,28.52
2022-12-12T07:11:17.078Z,30.52
2022-12-12T07:13:44.662Z,28.25
2022-12-12T07:16:12.061Z,28.52
2022-12-12T07:18:39.714Z,29.35
2022-12-12T07:21:09.235Z,27.98
2022-12-12T07:23:36.445Z,28.77
2022-12-12T07:26:05.300Z,27.70
2022-12-12T07:28:32.404Z,27.42
2022-12-12T07:31:01.301Z,27.88
2022-12-12T07:33:39.562Z,26.20
2022-12-12T07:36:10.290Z,29.45
2022-12-12T07:38:37.148Z,28.08
2022-12-12T07:41:10.112Z,30.40
2022-12-12T07:43:43.406Z,27.20
2022-12-12T07:46:17.558Z,28.80
2022-12-12T07:48:44.995Z,27.38
2022-12-12T07:51:12.271Z,27.45
2022-12-12T07:53:39.234Z,28.27
2022-12-12T07:56:07.459Z,28.08
2022-12-12T07:58:35.582Z,29.10
2022-12-12T08:01:14.676Z,28.25
2022-12-12T08:03:43.971Z,30.13
2022-12-12T08:06:11.471Z,30.92
2022-12-12T08:08:38.481Z,30.15
2022-12-12T08:11:10.689Z,29.90
2022-12-12T08:13:39.140Z,35.92
2022-12-12T08:16:08.031Z,33.08
2022-12-12T08:18:34.979Z,32.30
2022-12-12T08:21:02.206Z,29.45
2022-12-12T08:23:29.146Z,30.15
2022-12-12T08:25:55.998Z,28.67
2022-12-12T08:28:22.960Z,28.77
2022-12-12T08:30:51.030Z,29.70
2022-12-12T08:33:18.512Z,28.83
2022-12-12T08:35:45.659Z,29.17
2022-12-12T08:38:12.522Z,32.00
2022-12-12T08:40:39.772Z,26.90
2022-12-12T08:43:06.702Z,29.10
2022-12-12T08:45:33.688Z,30.50
2022-12-12T08:48:00.554Z,28.20
2022-12-12T08:50:27.396Z,32.20
2022-12-12T08:52:54.498Z,31.13
2022-12-12T08:55:21.687Z,31.00
2022-12-12T08:57:48.591Z,32.03
2022-12-12T09:00:16.176Z,30.73
2022-12-12T09:02:43.521Z,30.17
2022-12-12T09:05:11.088Z,33.47
2022-12-12T09:07:38.326Z,31.08
2022-12-12T09:10:06.374Z,30.40
2022-12-12T09:12:36.976Z,33.85
2022-12-12T09:15:09.089Z,32.65
2022-12-12T09:17:36.194Z,31.10
2022-12-12T09:20:03.685Z,39.67
2022-12-12T09:22:30.565Z,34.10
2022-12-12T09:24:57.722Z,33.00
2022-12-12T09:27:24.608Z,31.83
2022-12-12T09:29:51.537Z,36.65
2022-12-12T09:32:24.336Z,35.05
2022-12-12T09:34:52.049Z,34.10
2022-12-12T09:37:19.138Z,33.58
2022-12-12T09:39:46.054Z,34.20
2022-12-12T09:42:31.006Z,38.42
2022-12-12T09:45:05.105Z,36.30
2022-12-12T09:47:44.736Z,34.38
2022-12-12T09:50:31.909Z,33.28
2022-12-12T09:53:06.563Z,30.88
2022-12-12T09:55:50.436Z,26.08
2022-12-12T09:58:32.057Z,30.10
2022-12-12T10:01:19.754Z,29.90
2022-12-12T10:04:05.112Z,30.90
2022-12-12T10:06:43.831Z,28.67
2022-12-12T10:09:31.827Z,25.40
2022-12-12T10:12:04.943Z,25.25
2022-12-12T10:14:38.589Z,24.55
2022-12-12T10:17:15.683Z,25.92
2022-12-12T10:20:06.245Z,25.67
2022-12-12T10:22:43.771Z,24.55
2022-12-12T10:25:20.339Z,24.17
2022-12-12T10:27:51.123Z,23.73
2022-12-12T10:30:19.969Z,25.45
2022-12-12T10:33:04.658Z,25.23
2022-12-12T10:35:49.651Z,26.20
2022-12-12T10:38:22.380Z,26.00
2022-12-12T10:41:29.048Z,26.92
2022-12-12T10:44:01.842Z,26.63
2022-12-12T10:46:39.108Z,28.63
2022-12-12T10:49:22.826Z,28.63
2022-12-12T10:51:51.174Z,28.70
2022-12-12T10:54:21.385Z,27.77
2022-12-12T10:57:06.096Z,28.77
2022-12-12T10:59:58.389Z,21.83
2022-12-12T11:02:43.032Z,29.23
2022-12-12T11:05:16.009Z,31.17
2022-12-12T11:07:46.614Z,30.20
2022-12-12T11:10:33.439Z,29.55
2022-12-12T11:13:19.088Z,29.38
2022-12-12T11:15:52.876Z,30.55
2022-12-12T11:18:22.586Z,29.30
2022-12-12T11:20:51.168Z,28.08
2022-12-12T11:23:27.461Z,27.52
2022-12-12T11:26:00.989Z,25.80
2022-12-12T11:28:33.458Z,24.45
2022-12-12T11:31:04.359Z,24.23
2022-12-12T11:33:39.507Z,24.65
2022-12-12T11:36:07.081Z,23.20
2022-12-12T11:38:38.398Z,22.75
2022-12-12T11:41:11.736Z,22.92
2022-12-12T11:43:49.146Z,20.77
2022-12-12T11:46:18.863Z,21.83
2022-12-12T11:48:51.690Z,22.85
2022-12-12T11:51:32.708Z,20.15
2022-12-12T11:54:01.021Z,19.45
2022-12-12T11:56:27.807Z,19.88
2022-12-12T11:59:19.889Z,19.17
2022-12-12T12:01:49.614Z,19.40
2022-12-12T12:04:25.315Z,19.38
2022-12-12T12:06:54.988Z,20.13
2022-12-12T12:09:40.400Z,20.17
2022-12-12T12:12:21.338Z,20.85
2022-12-12T12:15:25.936Z,19.52
2022-12-12T12:18:01.800Z,19.55
2022-12-12T12:20:40.705Z,19.33
2022-12-12T12:23:23.047Z,18.85
2022-12-12T12:26:04.457Z,20.33
2022-12-12T12:28:31.333Z,19.52
2022-12-12T12:31:21.980Z,19.63
2022-12-12T12:34:13.346Z,19.45
2022-12-12T12:37:11.994Z,19.13
2022-12-12T12:40:05.637Z,19.02
2022-12-12T12:42:49.794Z,19.15
2022-12-12T12:45:25.615Z,19.80
2022-12-12T12:48:17.307Z,21.17
2022-12-12T12:50:50.672Z,18.40
2022-12-12T12:53:35.181Z,18.65
2022-12-12T12:56:12.084Z,18.98
2022-12-12T12:58:45.366Z,18.35
2022-12-12T13:01:29.173Z,19.90
2022-12-12T13:04:11.202Z,18.48
2022-12-12T13:07:01.375Z,17.45
2022-12-12T13:09:38.735Z,17.42
2022-12-12T13:12:58.090Z,16.27
2022-12-12T13:15:39.339Z,17.92
2022-12-12T13:18:14.909Z,16.45
2022-12-12T13:20:45.599Z,16.58
2022-12-12T13:23:15.181Z,15.93
2022-12-12T13:25:46.208Z,15.85
2022-12-12T13:28:25.560Z,15.88
2022-12-12T13:31:20.169Z,16.65
2022-12-12T13:33:52.526Z,16.40
2022-12-12T13:36:29.661Z,15.13
2022-12-12T13:39:01.295Z,15.35
2022-12-12T13:41:56.022Z,14.20
2022-12-12T13:44:44.612Z,15.40
2022-12-12T13:47:34.747Z,15.07
2022-12-12T13:50:06.580Z,19.88
2022-12-12T13:52:38.040Z,15.73
2022-12-12T13:55:14.115Z,16.73
2022-12-12T13:58:00.076Z,17.08
2022-12-12T14:00:35.458Z,16.95
2022-12-12T14:05:43.934Z,14.80
2022-12-12T14:08:10.738Z,15.40
2022-12-12T14:10:45.042Z,15.25
2022-12-12T14:13:36.982Z,14.63
2022-12-12T14:16:07.723Z,14.43
2022-12-12T14:19:04.797Z,15.77
2022-12-12T14:21:45.389Z,15.98
2022-12-12T14:24:34.304Z,14.50
2022-12-12T14:27:02.516Z,14.75
2022-12-12T14:29:32.473Z,14.10
2022-12-12T14:32:05.573Z,14.20
2022-12-12T14:34:59.285Z,14.15
2022-12-12T14:38:05.515Z,14.43
2022-12-12T14:40:40.364Z,14.35
2022-12-12T14:43:21.843Z,15.13
2022-12-12T14:45:49.554Z,13.63
2022-12-12T14:48:16.941Z,13.10
2022-12-12T14:50:51.666Z,13.10
2022-12-12T14:53:38.174Z,13.23
2022-12-12T14:56:12.208Z,12.30
2022-12-12T14:58:42.161Z,12.50
2022-12-12T15:01:09.613Z,13.55
2022-12-12T15:03:43.766Z,13.65
2022-12-12T15:06:23.430Z,13.77
2022-12-12T15:08:55.661Z,13.38
2022-12-12T15:11:32.669Z,14.70
2022-12-12T15:14:03.564Z,13.73
2022-12-12T15:16:48.350Z,13.93
2022-12-12T15:19:28.732Z,13.27
2022-12-12T15:21:56.871Z,13.82
2022-12-12T15:24:27.354Z,13.32
2022-12-12T15:26:56.839Z,13.07
2022-12-12T15:29:29.066Z,14.43
2022-12-12T15:32:09.412Z,14.48
2022-12-12T15:34:42.527Z,14.52
2022-12-12T15:37:31.546Z,13.32
2022-12-12T15:40:13.466Z,14.38
2022-12-12T15:42:44.704Z,12.90
2022-12-12T15:45:20.856Z,14.20
2022-12-12T15:47:48.206Z,16.88
2022-12-12T15:50:19.532Z,13.63
2022-12-12T15:52:57.736Z,15.73
2022-12-12T15:55:24.863Z,15.85
2022-12-12T15:57:52.705Z,14.73
2022-12-12T16:00:32.592Z,16.15
2022-12-12T16:03:11.713Z,14.05
2022-12-12T16:05:39.206Z,14.57
2022-12-12T16:08:39.176Z,13.82
2022-12-12T16:11:36.862Z,16.38
2022-12-12T16:14:05.153Z,15.20
2022-12-12T16:16:36.895Z,14.73
2022-12-12T16:19:05.609Z,15.18
2022-12-12T16:21:34.394Z,13.82
2022-12-12T16:24:12.964Z,14.63
2022-12-12T16:26:39.853Z,14.48
2022-12-12T16:29:06.677Z,15.45
2022-12-12T16:31:33.692Z,16.95
2022-12-12T16:34:03.548Z,16.38
2022-12-12T16:36:30.815Z,15.57
2022-12-12T16:38:57.667Z,15.35
2022-12-12T16:41:24.652Z,17.00
2022-12-12T16:43:51.468Z,17.17
2022-12-12T16:46:23.743Z,15.95
2022-12-12T16:48:51.477Z,14.18
2022-12-12T16:51:27.014Z,15.43
2022-12-12T16:53:54.430Z,15.27
2022-12-12T16:56:21.300Z,15.45
2022-12-12T16:58:48.284Z,15.45
2022-12-12T17:01:17.043Z,15.90
2022-12-12T17:03:44.090Z,15.38
2022-12-12T17:06:11.161Z,15.25
2022-12-12T17:08:38.664Z,16.20
2022-12-12T17:11:09.656Z,16.27
2022-12-12T17:13:41.068Z,17.75
2022-12-12T17:16:08.041Z,18.08
2022-12-12T17:18:34.878Z,18.92
2022-12-12T17:21:01.724Z,18.80
2022-12-12T17:23:29.468Z,21.13
2022-12-12T17:26:03.165Z,24.27
2022-12-12T17:28:33.538Z,23.08
2022-12-12T17:31:00.901Z,22.38
2022-12-12T17:33:27.760Z,25.27
2022-12-12T17:36:05.639Z,21.83
2022-12-12T17:38:33.542Z,20.75
2022-12-12T17:41:04.264Z,21.88
2022-12-12T17:43:31.259Z,20.15
2022-12-12T17:46:01.026Z,20.15
2022-12-12T17:48:33.190Z,21.23
2022-12-12T17:51:02.700Z,21.17
2022-12-12T17:53:32.342Z,22.25
2022-12-12T17:56:01.735Z,21.98
2022-12-12T17:58:41.432Z,21.58
2022-12-12T18:01:15.672Z,24.77
2022-12-12T18:03:44.134Z,21.50
2022-12-12T18:06:11.508Z,32.80
2022-12-12T18:08:39.156Z,36.45
2022-12-12T18:11:08.806Z,37.08
2022-12-12T18:13:36.273Z,36.45
2022-12-12T18:16:03.392Z,33.50
2022-12-12T18:18:30.507Z,34.67
2022-12-12T18:21:03.855Z,30.00
2022-12-12T18:23:31.397Z,27.10
2022-12-12T18:26:06.466Z,25.98
2022-12-12T18:28:33.909Z,25.23
2022-12-12T18:31:01.586Z,27.52
2022-12-12T18:33:28.738Z,24.73
2022-12-12T18:36:08.758Z,25.17
2022-12-12T18:38:36.316Z,25.30
2022-12-12T18:41:03.889Z,24.15
2022-12-12T18:43:31.640Z,24.92
2022-12-12T18:46:03.966Z,23.75
2022-12-12T18:48:31.063Z,22.85
2022-12-12T18:51:07.917Z,23.75
2022-12-12T18:53:35.193Z,29.13
2022-12-12T18:56:07.497Z,31.40
2022-12-12T18:58:36.508Z,30.00
2022-12-12T19:01:08.527Z,28.83
2022-12-12T19:03:37.127Z,41.60
2022-12-12T19:06:15.704Z,39.47
2022-12-12T19:08:43.291Z,39.42
2022-12-12T19:11:11.035Z,40.67
2022-12-12T19:13:38.620Z,36.58
2022-12-12T19:16:08.020Z,30.50
2022-12-12T19:18:35.448Z,28.60
2022-12-12T19:21:06.238Z,26.63
2022-12-12T19:23:34.512Z,24.95
2022-12-12T19:26:06.114Z,25.10
2022-12-12T19:28:33.136Z,26.95
2022-12-12T19:31:00.451Z,24.67
2022-12-12T19:33:27.621Z,23.67
2022-12-12T19:35:54.485Z,22.80
2022-12-12T19:38:24.483Z,23.08
2022-12-12T19:40:51.808Z,23.80
2022-12-12T19:43:18.645Z,24.13
2022-12-12T19:45:45.683Z,23.15
2022-12-12T19:48:12.600Z,24.23
2022-12-12T19:50:39.572Z,22.08
2022-12-12T19:53:06.403Z,22.95
2022-12-12T19:55:33.382Z,22.08
2022-12-12T19:58:02.449Z,23.55
2022-12-12T20:00:29.350Z,23.92
2022-12-12T20:02:56.189Z,23.20
2022-12-12T20:05:23.073Z,25.13
2022-12-12T20:07:49.922Z,23.52
2022-12-12T20:10:17.414Z,23.67
2022-12-12T20:12:56.115Z,24.63
2022-12-12T20:15:25.131Z,22.98
2022-12-12T20:17:51.995Z,22.45
2022-12-12T20:20:19.714Z,23.80
2022-12-12T20:22:46.558Z,22.45
2022-12-12T20:25:13.485Z,23.45
2022-12-12T20:27:40.303Z,21.95
2022-12-12T20:30:11.038Z,22.83
2022-12-12T20:32:38.035Z,23.30
2022-12-12T20:35:05.617Z,24.33
2022-12-12T20:37:33.477Z,22.88
2022-12-12T20:40:02.433Z,25.17
2022-12-12T20:42:29.330Z,24.88
2022-12-12T20:44:56.141Z,25.65
2022-12-12T20:47:23.166Z,24.52
2022-12-12T20:49:51.024Z,24.33
2022-12-12T20:52:20.503Z,24.95
2022-12-12T20:54:47.321Z,24.15
2022-12-12T20:57:14.173Z,23.15
2022-12-12T20:59:41.110Z,23.75
2022-12-12T21:02:08.008Z,24.08
2022-12-12T21:04:35.331Z,25.05
2022-12-12T21:07:02.233Z,23.73
2022-12-12T21:09:29.095Z,24.63
2022-12-12T21:11:58.026Z,24.02
2022-12-12T21:14:26.841Z,24.45
2022-12-12T21:16:54.420Z,24.88
2022-12-12T21:19:22.744Z,25.05
2022-12-12T21:21:50.495Z,25.80
2022-12-12T21:24:18.123Z,25.52
2022-12-12T21:26:46.330Z,25.60
2022-12-12T21:29:13.648Z,27.10
2022-12-12T21:31:50.460Z,25.98
2022-12-12T21:34:19.412Z,24.70
2022-12-12T21:36:46.268Z,26.15
2022-12-12T21:39:13.406Z,25.45
2022-12-12T21:41:43.817Z,25.77
2022-12-12T21:44:10.844Z,26.38
2022-12-12T21:46:41.673Z,26.65
2022-12-12T21:49:26.107Z,26.65
2022-12-12T21:51:59.072Z,28.90
2022-12-12T21:54:27.058Z,30.85
2022-12-12T21:56:55.975Z,30.10
2022-12-12T21:59:24.552Z,29.73
2022-12-12T22:01:53.920Z,28.25
2022-12-12T22:04:20.894Z,29.08
2022-12-12T22:06:47.757Z,31.83
2022-12-12T22:09:14.950Z,29.95
2022-12-12T22:11:48.292Z,29.77
2022-12-12T22:14:18.723Z,29.77
2022-12-12T22:16:45.640Z,28.98
2022-12-12T22:19:14.307Z,30.17
2022-12-12T22:21:41.563Z,27.50
2022-12-12T22:24:08.756Z,27.63
2022-12-12T22:26:38.573Z,25.48
2022-12-12T22:29:08.260Z,25.42
2022-12-12T22:31:37.637Z,26.92
2022-12-12T22:34:07.613Z,26.55
2022-12-12T22:36:36.982Z,27.90
2022-12-12T22:39:05.961Z,26.15
2022-12-12T22:41:32.828Z,24.90
2022-12-12T22:44:04.612Z,26.35
2022-12-12T22:46:32.553Z,25.17
2022-12-12T22:49:01.619Z,26.55
2022-12-12T22:51:31.672Z,25.40
2022-12-12T22:54:00.872Z,24.55
2022-12-12T22:56:30.600Z,25.23
2022-12-12T22:58:57.619Z,24.70
2022-12-12T23:01:27.183Z,22.63
2022-12-12T23:03:54.308Z,23.50
2022-12-12T23:06:24.626Z,23.88
2022-12-12T23:08:58.318Z,25.27
2022-12-12T23:11:27.356Z,23.27
2022-12-12T23:14:06.582Z,24.38
2022-12-12T23:16:37.137Z,23.30
2022-12-12T23:19:05.948Z,23.50
2022-12-12T23:21:34.056Z,24.23
2022-12-12T23:24:01.783Z,23.17
2022-12-12T23:26:30.437Z,24.35
2022-12-12T23:28:59.193Z,22.40
2022-12-12T23:31:31.955Z,22.83
2022-12-12T23:34:01.588Z,21.42
2022-12-12T23:36:29.079Z,21.92
2022-12-12T23:38:57.725Z,22.42
2022-12-12T23:41:25.278Z,23.50
2022-12-12T23:43:52.810Z,21.75
2022-12-12T23:46:29.458Z,21.98
2022-12-12T23:49:08.852Z,20.92
2022-12-12T23:51:39.699Z,22.83
2022-12-12T23:54:09.516Z,22.08
2022-12-12T23:56:36.865Z,22.83
2022-12-12T23:59:04.015Z,21.20
